Haikou, China
Current Conditions -  °F | °C
As of 4:00 PM on Thursday 18 Dec 2014 (Local Time) from ZJHK Reporting Station
Overcast Overcast  
Wind Chill: 59°   Ceiling: 4000
Heat Index: 59°   Visibility: 6mi
Dew Point: 50°   Wind: 11mph
Humidity: 72%   Direction: 30°NNE
Pressure: 30.18"   Gusts: NA
Location:  20.05°N, 110.32°E
Report Text: ZJHK 180800Z 03005MPS 360V060 9999 OVC040 15/10 Q1022 NOSIG
Loading
Personal Weather Stations






























Interactive Weather Map New forecast layout! Learn more

10-Day Weather Forecast

Advertisements
Track Severe Weather on mobile